Krypton, Kentucky
Current Conditions -  °F | °C
As of 8:53 PM on Sunday 21 Dec 2014 (Local Time) from KJKL Reporting Station
Clear Clear  
Wind Chill: 36°   Ceiling: Unl
Heat Index: 36°   Visibility: 10mi
Dew Point: 25°   Wind: 3mph
Humidity: 64%   Direction: 50°NE
Pressure: 30.13"   Gusts: NA
Location:  37.31°N, 83.34°W
Report Text: KJKL 220153Z AUTO 05003KT 10SM CLR 02/M04 A3013 RMK AO2 SLP213 T00221039
Loading
Personal Weather Stations






























Interactive Weather Map New forecast layout! Learn more

10-Day Weather Forecast

Advertisements
Track Severe Weather on mobile